دليل دواء مصر
دليل دواء مصر

دليل الأدوية
127
زيادات اسعار الادوية

صيدليات لطلب الادوية

تسجيل الدخول

Alphabetical Order 00
Popularity Order
X

صيدلية صيدلية احمد عادل شراء الادوية اونلاين
صيدلية صيدلية احمد عادل
تاريخ انتهاء الاشتراك: 2024-08-01

صيدلية صيدلية احمد عادل


لطلبات الادوية من الصيدلية يمكنكم استخدام هذه الوسائل للاتصال
👇 👇 👇


آخر اوردرات تم طلبها من الصيدلية
👇 👇 👇

ItemPriceTimeC.Phone
veroxeserin 100 mg 10 f.c. tabs200 L.E.2024/07/23 05:22:16 am010968139..
fostimon 150 i.u. i.m./s.c. vial390 L.E.2024/07/23 03:55:51 am010033402..
salivex-l paint 10 ml14 L.E.2024/07/23 02:56:36 am010178686..
capozide 50/25mg 30 tab.58 L.E.2024/07/23 02:34:07 am010167562..
unitrexate 50 mg 5 i.m. i.v. vials220 L.E.2024/07/23 02:25:38 am012244734..
glybofen 5/1000mg 30 f.c.tabs.31.5 L.E.2024/07/23 02:16:38 am010945943..
betadine dry powder spray 2.5% 55 gm220 L.E.2024/07/23 02:07:44 am010061553..
mounjaro injection 5mg/0.5ml 4 single dose prefilled pens20000 L.E.2024/07/23 01:57:50 am010703137..
forteo (20mcg/80mcl) pre-filled pen 2.4 ml4867 L.E.2024/07/23 01:12:15 am010267823..
pentasa 500mg 100 slow release tab575 L.E.2024/07/23 12:32:14 am..
prolia 60 mg 1 pref.syringe5174 L.E.2024/07/23 12:09:15 am010201390..
amosar 50mg 30 f.c. tabs.51 L.E.2024/07/23 12:03:54 am010178608..
provimest 25 mg 20 tab.32.4 L.E.2024/07/22 11:54:59 pm010703069..
xeloda 500 mg 120 tab6650 L.E.2024/07/22 11:53:42 pm010038320..
limitless turmeric 500 mg 60 caps.385 L.E.2024/07/22 11:45:36 pm010071659..
cetal 100mg/ml oral drops 15 ml15 L.E.2024/07/22 11:42:35 pm011542448..
certican 0.5mg 60 tab.1100 L.E.2024/07/22 11:38:11 pm011507981..
stugeron 25mg 30 tab34.5 L.E.2024/07/22 11:22:33 pm..
demafight 5 mg 30 scored tabs55.5 L.E.2024/07/22 11:01:07 pm..
gonapure 150 i.u./ml i.m./s.c. vial395 L.E.2024/07/22 10:42:49 pm011015154..
colchicine 500mcg 100 tab120 L.E.2024/07/22 10:33:52 pm..
supportan drink (tropical fruits) 200 ml110 L.E.2024/07/22 10:33:23 pm012238485..
flagentyl 500mg 4 f.c. tabs.21.6 L.E.2024/07/22 10:28:12 pm010090126..
menogon 75 i.u. 10 amp.924 L.E.2024/07/22 10:12:06 pm012831444..
spasmorest 20mg 20 tab.19 L.E.2024/07/22 09:55:42 pm010290229..
gonapure 150 i.u./ml i.m./s.c. vial395 L.E.2024/07/22 09:53:09 pm..
melanor 20 sachet165 L.E.2024/07/22 09:52:28 pm010282653..
melanor 20 sachet165 L.E.2024/07/22 09:51:03 pm010282653..
forflozin plus 10/1000 mg 30 ext. rel . f.c. tabs.231 L.E.2024/07/22 09:50:53 pm012044545..
spiriva respimat 2.5mcg 60 puffs inhaler416 L.E.2024/07/22 09:38:23 pm010251326..
meriofert 150 i.u. vial596 L.E.2024/07/22 09:12:39 pm012087311..
blemil plus 3 milk 400 gm260 L.E.2024/07/22 09:06:43 pm..
xanax 0.25mg 100 tab.80 L.E.2024/07/22 09:01:52 pm015072119..
ketosteril 100 f.c. tabs.675 L.E.2024/07/22 08:53:49 pm011484397..
bio legam 4 f.c. tabs96 L.E.2024/07/22 08:51:59 pm011276027..
saizen liquid 20mg/2.5ml cartridge s.c. inj.6000 L.E.2024/07/22 08:31:07 pm011229989..
demafight 5 mg 30 scored tabs55.5 L.E.2024/07/22 08:26:12 pm010236886..
retadel 250mg 20 caps.26.4 L.E.2024/07/22 08:25:59 pm012071083..
betacor 80mg 30 tab.57 L.E.2024/07/22 08:02:47 pm011118082..
betacor 80mg 30 tab.57 L.E.2024/07/22 08:02:38 pm011118082..
pentasa xtend 2 gm 60 sachets1230 L.E.2024/07/22 07:45:43 pm010288838..
betoptic 5mg/ml eye drops 5 ml23.4 L.E.2024/07/22 07:39:58 pm010025565..
gamafer caps 20 caps78 L.E.2024/07/22 07:29:26 pm011415992..
haemostatine 500mg 30 tab39 L.E.2024/07/22 07:24:23 pm010600757..
rowatinex 45 capsules72 L.E.2024/07/22 07:08:34 pm010202730..
etopul 100mg/5ml 5 amps. i.v inj./inf.452.5 L.E.2024/07/22 06:58:22 pm010056133..
salino prof spray50 L.E.2024/07/22 06:26:44 pm011446290..
haloperidol retard 50mg/ml i.m.amp.19.2 L.E.2024/07/22 06:22:10 pm011408588..
forteo (20mcg/80mcl) pre-filled pen 2.4 ml4867 L.E.2024/07/22 06:22:02 pm015539911..
cidamex 250mg 20 tab.31 L.E.2024/07/22 06:02:33 pm011161383..
بإجمالي بقيمة 57799.5 جنيه

ساعد الناس لتعرف صفحتك من خلال مشاركتها من هنا
👇 👇 👇


VIEWS: 6183
ORDERS RECIEVED : 14295 orders

PHARMACY ID: 409



آخر منتجات تم اضافتها من هذه الصيدلية


تقييمات العملاء للصيدلية:


العنوان
القاهرة
2 - ابراج زاهر شارع امتداد حسن المامون ميدان الوفاء و الامل مدينه نصر - القاهره.


الاتجاهات وكيف تصل اليها على خرائط جوجل مابس
👇 👇 👇

تاريخ تسجيل الصيدلية على الموقع
👇 👇 👇
2023-09-30 19:25:16


تبليغ عن مشكلة 🚩



جميع الحقوق محفوظة دليل دواء مصر © 2024